Urbana, OH

6:21 AM EDT on May 26, 2015 (GMT -0400)
South of Urbana | | Change Station
CLOSE
Current Station
Personal Weather Station
Location: Urbana, OH
Elevation: 1148 ft
Nearby Weather Stations

Elev 1148 ft 40.07 °N, 83.73 °W | Updated 9 minutes ago

Overcast
Overcast
65.1 °F
Feels Like 65.1 °F
N
0.7
Wind Variable Wind from SSW
Gusts 1.6 mph

Today
High -- | Low -- °F
--% Chance of Precip.
Yesterday
High -- | Low -- °F
Precip. -- in
6:11 AM 8:53 PM
First Quarter, 57% visible
Pressure 30.11 in
Visibility 10.0 miles
Clouds Overcast 2200 ft
Dew Point 63 °F
Humidity 93%
Rainfall 0.00 in
Snow Depth Not available.
UV 0 out of 12
Pollen 9.50 out of 12
Air Quality Not available.
Flu Activity Local Activity
METAR KEDJ 261005Z AUTO 19008KT 10SM OVC022 19/19 A3011 RMK AO1

More Conditions Fewer Conditions

Pressure 30.11 in
Visibility 10.0 miles
Clouds Overcast 2200 ft
Dew Point 63 °F
Humidity 93%
Rainfall 0.00 in
Snow Depth Not available.
UV 0 out of 12
Pollen 9.50 out of 12
Air Quality Not available.
Flu Activity Local Activity
METAR KEDJ 261005Z AUTO 19008KT 10SM OVC022 19/19 A3011 RMK AO1

More Conditions Fewer Conditions

10-Day Weather Forecast

Almanac

Astronomy

May. 26, 2015 Rise Set
Actual Time
Civil Twilight
Nautical Twilight
Astronomical Twilight
Moon
Length of Visible Light
Length of Day
Tomorrow will be .
, % of the Moon is Illuminated

Today's Extremes

State Highs State Lows

Community

WunderPhotos

Upload Photos

1,824,305 photos uploaded!

WunderBlogs® & News

Nearby

Air Quality

  Air Quality AQ Index Pollutant
Not available.

Snow Depth

Station Depth Elevation

Earthquake Activity

City Distance Mag. Time & Date
Minimum magnitude displayed is 2.5.

Coastal Water Temperatures

Place Temperature

Stations

Nearby Weather Stations

Station Location Temp. Windchill Dew Point Humidity Wind Precip. Elev Updated Type